sensor_id;sensor_type;location;lat;lon;timestamp;pressure;altitude;pressure_sealevel;temperature;humidity
68508;BME280;55510;49.560;19.090;2024-02-16T05:36:33;96825.31;;;0.85;100.00
68508;BME280;55510;49.560;19.090;2024-02-16T05:39:37;96819.88;;;0.87;100.00
68508;BME280;55510;49.560;19.090;2024-02-16T05:42:55;96826.09;;;0.94;100.00
68508;BME280;55510;49.560;19.090;2024-02-16T05:45:58;96827.44;;;1.45;100.00
68508;BME280;55510;49.560;19.090;2024-02-16T05:48:59;96824.97;;;1.20;100.00
68508;BME280;55510;49.560;19.090;2024-02-16T05:52:03;96828.22;;;1.22;100.00
68508;BME280;55510;49.560;19.090;2024-02-16T05:55:21;96837.13;;;1.13;100.00
68508;BME280;55510;49.560;19.090;2024-02-16T05:58:22;96836.19;;;2.67;100.00
68508;BME280;55510;49.560;19.090;2024-02-16T06:01:23;96843.06;;;2.68;100.00
68508;BME280;55510;49.560;19.090;2024-02-16T06:04:24;96841.97;;;2.47;100.00
68508;BME280;55510;49.560;19.090;2024-02-16T06:07:24;96839.97;;;2.50;100.00
68508;BME280;55510;49.560;19.090;2024-02-16T06:10:26;96844.88;;;2.53;100.00
68508;BME280;55510;49.560;19.090;2024-02-16T06:13:26;96845.69;;;2.53;100.00
68508;BME280;55510;49.560;19.090;2024-02-16T06:16:27;96840.19;;;2.48;100.00
68508;BME280;55510;49.560;19.090;2024-02-16T06:19:29;96849.41;;;2.59;100.00
68508;BME280;55510;49.560;19.090;2024-02-16T06:22:31;96847.28;;;2.99;100.00
68508;BME280;55510;49.560;19.090;2024-02-16T06:25:32;96854.03;;;2.87;100.00
68508;BME280;55510;49.560;19.090;2024-02-16T06:29:13;96853.72;;;2.22;100.00
68508;BME280;55510;49.560;19.090;2024-02-16T06:32:14;96854.69;;;2.21;100.00
68508;BME280;55510;49.560;19.090;2024-02-16T06:35:17;96855.56;;;2.36;100.00
68508;BME280;55510;49.560;19.090;2024-02-16T06:38:18;96858.00;;;2.23;100.00
68508;BME280;55510;49.560;19.090;2024-02-16T06:41:18;96860.63;;;2.53;100.00
68508;BME280;55510;49.560;19.090;2024-02-16T06:44:20;96857.91;;;2.31;100.00
68508;BME280;55510;49.560;19.090;2024-02-16T06:47:20;96860.63;;;2.53;100.00
68508;BME280;55510;49.560;19.090;2024-02-16T06:50:24;96859.56;;;2.77;100.00
68508;BME280;55510;49.560;19.090;2024-02-16T06:53:24;96862.81;;;2.94;100.00
68508;BME280;55510;49.560;19.090;2024-02-16T06:56:25;96868.13;;;3.16;100.00
68508;BME280;55510;49.560;19.090;2024-02-16T06:59:26;96863.19;;;3.28;100.00
68508;BME280;55510;49.560;19.090;2024-02-16T07:02:26;96870.38;;;3.56;100.00
68508;BME280;55510;49.560;19.090;2024-02-16T07:05:27;96859.16;;;3.47;100.00
68508;BME280;55510;49.560;19.090;2024-02-16T07:08:29;96868.59;;;3.56;100.00
68508;BME280;55510;49.560;19.090;2024-02-16T07:11:29;96870.22;;;3.79;100.00
68508;BME280;55510;49.560;19.090;2024-02-16T07:14:30;96872.47;;;3.82;100.00
68508;BME280;55510;49.560;19.090;2024-02-16T07:17:32;96880.28;;;4.19;100.00
68508;BME280;55510;49.560;19.090;2024-02-16T07:20:36;96872.09;;;4.64;100.00
68508;BME280;55510;49.560;19.090;2024-02-16T07:23:37;96872.25;;;4.98;100.00
68508;BME280;55510;49.560;19.090;2024-02-16T07:26:38;96876.31;;;5.49;100.00
68508;BME280;55510;49.560;19.090;2024-02-16T07:29:39;96876.88;;;6.13;100.00
68508;BME280;55510;49.560;19.090;2024-02-16T07:32:40;96870.50;;;6.81;100.00
68508;BME280;55510;49.560;19.090;2024-02-16T07:35:40;96868.41;;;7.56;100.00
68508;BME280;55510;49.560;19.090;2024-02-16T07:38:41;96869.19;;;8.46;100.00
68508;BME280;55510;49.560;19.090;2024-02-16T07:41:42;96863.44;;;8.93;91.27
68508;BME280;55510;49.560;19.090;2024-02-16T07:44:43;96869.13;;;8.97;92.69
68508;BME280;55510;49.560;19.090;2024-02-16T07:47:43;96861.91;;;9.84;85.63
68508;BME280;55510;49.560;19.090;2024-02-16T07:50:44;96868.41;;;10.90;86.26
68508;BME280;55510;49.560;19.090;2024-02-16T07:53:45;96868.88;;;11.69;81.02
68508;BME280;55510;49.560;19.090;2024-02-16T07:56:47;96874.97;;;12.27;73.70
68508;BME280;55510;49.560;19.090;2024-02-16T07:59:47;96874.88;;;12.56;68.61
68508;BME280;55510;49.560;19.090;2024-02-16T08:02:48;96865.13;;;12.45;70.39
68508;BME280;55510;49.560;19.090;2024-02-16T08:05:49;96873.69;;;13.26;71.09
68508;BME280;55510;49.560;19.090;2024-02-16T08:08:50;96874.59;;;12.92;67.97
68508;BME280;55510;49.560;19.090;2024-02-16T08:11:50;96876.47;;;13.81;64.96
68508;BME280;55510;49.560;19.090;2024-02-16T08:14:51;96876.38;;;14.30;66.85
68508;BME280;55510;49.560;19.090;2024-02-16T08:17:52;96872.31;;;14.98;60.12
68508;BME280;55510;49.560;19.090;2024-02-16T08:20:53;96882.00;;;15.78;61.18
68508;BME280;55510;49.560;19.090;2024-02-16T08:23:53;96886.41;;;16.47;58.24
68508;BME280;55510;49.560;19.090;2024-02-16T08:26:54;96887.06;;;17.30;57.94
68508;BME280;55510;49.560;19.090;2024-02-16T08:29:54;96884.38;;;17.91;54.07
68508;BME280;55510;49.560;19.090;2024-02-16T08:32:55;96884.00;;;18.77;54.88
68508;BME280;55510;49.560;19.090;2024-02-16T08:35:56;96888.44;;;19.46;51.17
68508;BME280;55510;49.560;19.090;2024-02-16T08:38:57;96886.25;;;19.86;46.46
68508;BME280;55510;49.560;19.090;2024-02-16T08:41:57;96886.09;;;20.02;46.84
68508;BME280;55510;49.560;19.090;2024-02-16T08:44:59;96890.44;;;19.79;42.46
68508;BME280;55510;49.560;19.090;2024-02-16T08:48:00;96886.16;;;19.97;44.87
68508;BME280;55510;49.560;19.090;2024-02-16T08:51:03;96881.56;;;19.97;41.14
68508;BME280;55510;49.560;19.090;2024-02-16T08:54:04;96884.38;;;20.45;41.92
68508;BME280;55510;49.560;19.090;2024-02-16T08:57:05;96892.69;;;20.81;41.30
68508;BME280;55510;49.560;19.090;2024-02-16T09:00:06;96884.91;;;20.80;40.21
68508;BME280;55510;49.560;19.090;2024-02-16T09:03:08;96883.09;;;20.89;41.32
68508;BME280;55510;49.560;19.090;2024-02-16T09:06:09;96877.47;;;20.19;41.14
68508;BME280;55510;49.560;19.090;2024-02-16T09:09:09;96865.94;;;16.77;46.85
68508;BME280;55510;49.560;19.090;2024-02-16T09:12:11;96853.63;;;15.14;52.96
68508;BME280;55510;49.560;19.090;2024-02-16T09:15:12;96847.63;;;14.91;52.19
68508;BME280;55510;49.560;19.090;2024-02-16T09:18:12;96858.19;;;16.60;48.99
68508;BME280;55510;49.560;19.090;2024-02-16T09:21:13;96856.75;;;17.69;44.77
68508;BME280;55510;49.560;19.090;2024-02-16T09:24:14;96856.69;;;17.30;45.94
68508;BME280;55510;49.560;19.090;2024-02-16T09:27:18;96852.22;;;15.80;49.57
68508;BME280;55510;49.560;19.090;2024-02-16T09:30:19;96845.28;;;15.05;51.63
68508;BME280;55510;49.560;19.090;2024-02-16T09:33:22;96838.75;;;14.85;53.03
68508;BME280;55510;49.560;19.090;2024-02-16T09:36:24;96850.41;;;15.96;50.88
68508;BME280;55510;49.560;19.090;2024-02-16T09:39:25;96841.66;;;15.42;50.92
68508;BME280;55510;49.560;19.090;2024-02-16T09:42:27;96848.22;;;15.88;49.33
68508;BME280;55510;49.560;19.090;2024-02-16T09:45:29;96846.41;;;15.19;50.95
68508;BME280;55510;49.560;19.090;2024-02-16T09:48:31;96848.81;;;14.68;53.90
68508;BME280;55510;49.560;19.090;2024-02-16T09:51:35;96848.03;;;14.72;53.96
68508;BME280;55510;49.560;19.090;2024-02-16T09:54:36;96857.50;;;15.49;50.84
68508;BME280;55510;49.560;19.090;2024-02-16T09:57:37;96851.56;;;15.31;50.29
68508;BME280;55510;49.560;19.090;2024-02-16T10:00:37;96855.31;;;15.30;49.91
68508;BME280;55510;49.560;19.090;2024-02-16T10:03:43;96861.16;;;15.91;49.22
68508;BME280;55510;49.560;19.090;2024-02-16T10:06:47;96859.53;;;16.21;47.99
68508;BME280;55510;49.560;19.090;2024-02-16T10:09:48;96854.97;;;16.37;48.65
68508;BME280;55510;49.560;19.090;2024-02-16T10:12:49;96846.13;;;16.21;48.24
68508;BME280;55510;49.560;19.090;2024-02-16T10:15:50;96855.22;;;16.82;47.08
68508;BME280;55510;49.560;19.090;2024-02-16T10:18:51;96853.09;;;15.91;50.33
68508;BME280;55510;49.560;19.090;2024-02-16T10:21:52;96847.97;;;15.94;49.23
68508;BME280;55510;49.560;19.090;2024-02-16T10:24:52;96856.84;;;16.52;47.71
68508;BME280;55510;49.560;19.090;2024-02-16T10:27:53;96854.53;;;18.27;46.52
68508;BME280;55510;49.560;19.090;2024-02-16T10:31:00;96853.28;;;17.64;44.08
68508;BME280;55510;49.560;19.090;2024-02-16T10:34:06;96849.19;;;17.16;47.65
68508;BME280;55510;49.560;19.090;2024-02-16T10:37:08;96850.72;;;18.63;42.16
68508;BME280;55510;49.560;19.090;2024-02-16T10:40:10;96853.94;;;20.53;37.21
68508;BME280;55510;49.560;19.090;2024-02-16T10:43:14;96852.16;;;19.09;39.92
68508;BME280;55510;49.560;19.090;2024-02-16T10:46:16;96857.53;;;21.51;37.76
68508;BME280;55510;49.560;19.090;2024-02-16T10:49:17;96846.19;;;19.55;39.20
68508;BME280;55510;49.560;19.090;2024-02-16T10:52:19;96846.28;;;20.08;41.11
68508;BME280;55510;49.560;19.090;2024-02-16T10:55:20;96844.63;;;20.12;38.98
68508;BME280;55510;49.560;19.090;2024-02-16T10:58:22;96848.06;;;22.13;36.33
68508;BME280;55510;49.560;19.090;2024-02-16T11:01:22;96842.09;;;22.48;32.65
68508;BME280;55510;49.560;19.090;2024-02-16T11:04:25;96839.06;;;24.24;31.03
68508;BME280;55510;49.560;19.090;2024-02-16T11:07:37;96837.38;;;23.26;31.66
68508;BME280;55510;49.560;19.090;2024-02-16T11:10:37;96834.84;;;24.61;29.20
68508;BME280;55510;49.560;19.090;2024-02-16T11:13:38;96829.34;;;25.78;28.36
68508;BME280;55510;49.560;19.090;2024-02-16T11:16:44;96829.69;;;27.89;25.66
68508;BME280;55510;49.560;19.090;2024-02-16T11:19:46;96824.63;;;24.41;31.76
68508;BME280;55510;49.560;19.090;2024-02-16T11:22:47;96824.75;;;25.10;28.10
68508;BME280;55510;49.560;19.090;2024-02-16T11:25:51;96810.38;;;22.26;34.67
68508;BME280;55510;49.560;19.090;2024-02-16T11:28:52;96807.31;;;22.82;31.96
68508;BME280;55510;49.560;19.090;2024-02-16T11:31:53;96806.44;;;23.62;30.37
68508;BME280;55510;49.560;19.090;2024-02-16T11:34:55;96818.25;;;24.28;31.01
68508;BME280;55510;49.560;19.090;2024-02-16T11:37:56;96802.91;;;21.35;33.71
68508;BME280;55510;49.560;19.090;2024-02-16T11:41:04;96810.19;;;25.05;29.49
68508;BME280;55510;49.560;19.090;2024-02-16T11:44:05;96813.31;;;25.25;27.93
68508;BME280;55510;49.560;19.090;2024-02-16T11:47:07;96823.09;;;27.90;25.00
68508;BME280;55510;49.560;19.090;2024-02-16T11:50:12;96828.03;;;29.54;23.28
68508;BME280;55510;49.560;19.090;2024-02-16T11:53:17;96830.25;;;30.86;21.03
68508;BME280;55510;49.560;19.090;2024-02-16T11:56:23;96828.47;;;31.21;22.89
68508;BME280;55510;49.560;19.090;2024-02-16T11:59:25;96809.34;;;24.84;27.53
68508;BME280;55510;49.560;19.090;2024-02-16T12:02:26;96819.47;;;28.43;25.33
68508;BME280;55510;49.560;19.090;2024-02-16T12:05:27;96817.34;;;29.49;23.20
68508;BME280;55510;49.560;19.090;2024-02-16T12:08:34;96823.78;;;30.12;22.46
68508;BME280;55510;49.560;19.090;2024-02-16T12:11:36;96823.50;;;31.30;21.83
68508;BME280;55510;49.560;19.090;2024-02-16T12:14:36;96812.94;;;27.50;25.11
68508;BME280;55510;49.560;19.090;2024-02-16T12:17:38;96801.56;;;28.17;25.20
68508;BME280;55510;49.560;19.090;2024-02-16T12:20:38;96805.16;;;27.27;25.45
68508;BME280;55510;49.560;19.090;2024-02-16T12:23:39;96804.38;;;27.92;24.30
68508;BME280;55510;49.560;19.090;2024-02-16T12:26:40;96802.91;;;27.17;25.48
68508;BME280;55510;49.560;19.090;2024-02-16T12:29:41;96795.56;;;25.49;28.41
68508;BME280;55510;49.560;19.090;2024-02-16T12:32:42;96792.84;;;22.95;31.25
68508;BME280;55510;49.560;19.090;2024-02-16T12:35:43;96795.63;;;22.18;33.31
68508;BME280;55510;49.560;19.090;2024-02-16T12:38:43;96795.34;;;20.01;36.73
68508;BME280;55510;49.560;19.090;2024-02-16T12:41:46;96777.81;;;18.19;39.12
68508;BME280;55510;49.560;19.090;2024-02-16T12:44:47;96780.75;;;17.83;40.99
68508;BME280;55510;49.560;19.090;2024-02-16T12:47:47;96769.28;;;16.51;44.07
68508;BME280;55510;49.560;19.090;2024-02-16T12:50:48;96766.38;;;17.13;42.65
68508;BME280;55510;49.560;19.090;2024-02-16T12:53:49;96765.13;;;17.50;41.36
68508;BME280;55510;49.560;19.090;2024-02-16T12:56:50;96761.00;;;16.32;43.96
68508;BME280;55510;49.560;19.090;2024-02-16T12:59:51;96764.47;;;16.27;45.14
68508;BME280;55510;49.560;19.090;2024-02-16T13:02:52;96768.94;;;16.73;44.02
68508;BME280;55510;49.560;19.090;2024-02-16T13:05:53;96762.84;;;16.47;44.21
68508;BME280;55510;49.560;19.090;2024-02-16T13:08:53;96777.78;;;16.79;43.57
68508;BME280;55510;49.560;19.090;2024-02-16T13:11:57;96774.41;;;16.42;43.87
68508;BME280;55510;49.560;19.090;2024-02-16T13:14:58;96766.63;;;15.84;45.78
68508;BME280;55510;49.560;19.090;2024-02-16T13:17:59;96767.41;;;15.63;47.20
68508;BME280;55510;49.560;19.090;2024-02-16T13:20:59;96766.06;;;15.61;46.52
68508;BME280;55510;49.560;19.090;2024-02-16T13:24:00;96770.38;;;15.67;47.18
68508;BME280;55510;49.560;19.090;2024-02-16T13:27:00;96771.72;;;15.80;46.00
68508;BME280;55510;49.560;19.090;2024-02-16T13:30:01;96764.47;;;15.65;46.58
68508;BME280;55510;49.560;19.090;2024-02-16T13:33:02;96757.50;;;15.85;46.41
68508;BME280;55510;49.560;19.090;2024-02-16T13:36:03;96768.53;;;16.19;46.27
68508;BME280;55510;49.560;19.090;2024-02-16T13:39:05;96758.84;;;16.08;44.92
68508;BME280;55510;49.560;19.090;2024-02-16T13:42:06;96767.72;;;16.19;44.77
68508;BME280;55510;49.560;19.090;2024-02-16T13:45:07;96755.34;;;16.28;44.67
68508;BME280;55510;49.560;19.090;2024-02-16T13:48:09;96756.09;;;16.49;44.29
68508;BME280;55510;49.560;19.090;2024-02-16T13:51:10;96754.31;;;15.93;47.02
68508;BME280;55510;49.560;19.090;2024-02-16T13:54:10;96753.47;;;15.61;47.42
68508;BME280;55510;49.560;19.090;2024-02-16T13:57:11;96763.69;;;16.06;46.26
68508;BME280;55510;49.560;19.090;2024-02-16T14:00:15;96763.72;;;15.90;47.18
68508;BME280;55510;49.560;19.090;2024-02-16T14:03:24;96766.03;;;16.54;44.80
68508;BME280;55510;49.560;19.090;2024-02-16T14:06:25;96764.56;;;16.93;43.79
68508;BME280;55510;49.560;19.090;2024-02-16T14:09:25;96756.94;;;16.50;45.26
68508;BME280;55510;49.560;19.090;2024-02-16T14:12:27;96750.78;;;16.29;45.19
68508;BME280;55510;49.560;19.090;2024-02-16T14:15:27;96761.78;;;15.75;46.66
68508;BME280;55510;49.560;19.090;2024-02-16T14:18:28;96748.28;;;15.13;49.28
68508;BME280;55510;49.560;19.090;2024-02-16T14:21:29;96737.41;;;14.24;52.46
68508;BME280;55510;49.560;19.090;2024-02-16T14:24:30;96750.22;;;15.49;48.93
68508;BME280;55510;49.560;19.090;2024-02-16T14:27:30;96758.97;;;16.84;44.28
68508;BME280;55510;49.560;19.090;2024-02-16T14:30:31;96756.13;;;18.00;43.51
68508;BME280;55510;49.560;19.090;2024-02-16T14:33:35;96757.84;;;19.42;38.42
68508;BME280;55510;49.560;19.090;2024-02-16T14:36:36;96755.06;;;20.80;36.35
68508;BME280;55510;49.560;19.090;2024-02-16T14:39:36;96761.16;;;21.50;33.37
68508;BME280;55510;49.560;19.090;2024-02-16T14:42:38;96759.22;;;22.33;32.31
68508;BME280;55510;49.560;19.090;2024-02-16T14:45:39;96761.31;;;22.36;31.96
68508;BME280;55510;49.560;19.090;2024-02-16T14:48:40;96761.34;;;22.13;32.14
68508;BME280;55510;49.560;19.090;2024-02-16T14:51:41;96764.41;;;19.74;36.23
68508;BME280;55510;49.560;19.090;2024-02-16T14:54:43;96745.06;;;17.67;40.38
68508;BME280;55510;49.560;19.090;2024-02-16T14:57:43;96743.72;;;16.64;43.21
68508;BME280;55510;49.560;19.090;2024-02-16T15:00:44;96738.13;;;16.34;44.72
68508;BME280;55510;49.560;19.090;2024-02-16T15:03:45;96742.47;;;17.57;41.40
68508;BME280;55510;49.560;19.090;2024-02-16T15:06:46;96737.31;;;18.54;39.96
68508;BME280;55510;49.560;19.090;2024-02-16T15:09:46;96737.09;;;17.57;40.65
68508;BME280;55510;49.560;19.090;2024-02-16T15:12:47;96732.19;;;15.13;47.30
68508;BME280;55510;49.560;19.090;2024-02-16T15:15:47;96724.72;;;14.09;50.44
68508;BME280;55510;49.560;19.090;2024-02-16T15:18:48;96718.97;;;13.02;54.14
68508;BME280;55510;49.560;19.090;2024-02-16T15:21:49;96718.03;;;12.46;56.69
68508;BME280;55510;49.560;19.090;2024-02-16T15:24:49;96720.22;;;12.10;58.02
68508;BME280;55510;49.560;19.090;2024-02-16T15:27:50;96719.13;;;11.72;60.24
68508;BME280;55510;49.560;19.090;2024-02-16T15:30:52;96713.44;;;11.51;61.25
68508;BME280;55510;49.560;19.090;2024-02-16T15:33:53;96716.41;;;11.38;61.82
68508;BME280;55510;49.560;19.090;2024-02-16T15:36:54;96715.81;;;11.19;63.08
68508;BME280;55510;49.560;19.090;2024-02-16T15:39:57;96713.34;;;11.00;64.71
68508;BME280;55510;49.560;19.090;2024-02-16T15:43:01;96710.97;;;10.86;64.39
68508;BME280;55510;49.560;19.090;2024-02-16T15:46:02;96714.75;;;10.62;66.80
68508;BME280;55510;49.560;19.090;2024-02-16T15:49:03;96713.16;;;10.49;67.57
68508;BME280;55510;49.560;19.090;2024-02-16T15:52:04;96713.16;;;10.13;70.51
68508;BME280;55510;49.560;19.090;2024-02-16T15:55:05;96711.78;;;9.86;72.74
68508;BME280;55510;49.560;19.090;2024-02-16T15:58:06;96710.28;;;9.79;72.08
68508;BME280;55510;49.560;19.090;2024-02-16T16:01:08;96708.41;;;9.67;72.19
68508;BME280;55510;49.560;19.090;2024-02-16T16:04:09;96702.16;;;9.50;75.04
68508;BME280;55510;49.560;19.090;2024-02-16T16:07:10;96708.94;;;9.34;76.02
68508;BME280;55510;49.560;19.090;2024-02-16T16:10:14;96713.16;;;9.23;76.59
68508;BME280;55510;49.560;19.090;2024-02-16T16:13:17;96716.22;;;8.96;78.58
68508;BME280;55510;49.560;19.090;2024-02-16T16:16:17;96720.50;;;8.78;79.73
68508;BME280;55510;49.560;19.090;2024-02-16T16:19:20;96723.59;;;8.75;79.72
68508;BME280;55510;49.560;19.090;2024-02-16T16:22:20;96720.16;;;8.75;80.46
68508;BME280;55510;49.560;19.090;2024-02-16T16:25:21;96723.03;;;8.54;81.73
68508;BME280;55510;49.560;19.090;2024-02-16T16:28:22;96727.00;;;8.45;82.39
68508;BME280;55510;49.560;19.090;2024-02-16T16:31:23;96729.56;;;8.33;82.33
68508;BME280;55510;49.560;19.090;2024-02-16T16:34:23;96731.72;;;8.43;82.74
68508;BME280;55510;49.560;19.090;2024-02-16T16:37:24;96731.34;;;8.39;82.32
68508;BME280;55510;49.560;19.090;2024-02-16T16:40:24;96735.72;;;8.52;82.26
68508;BME280;55510;49.560;19.090;2024-02-16T16:43:25;96730.25;;;8.47;81.76
68508;BME280;55510;49.560;19.090;2024-02-16T16:46:26;96736.44;;;8.41;82.35
68508;BME280;55510;49.560;19.090;2024-02-16T16:49:27;96740.00;;;8.09;83.74
68508;BME280;55510;49.560;19.090;2024-02-16T16:52:27;96740.97;;;8.34;83.66
68508;BME280;55510;49.560;19.090;2024-02-16T16:55:28;96743.56;;;8.40;82.31
68508;BME280;55510;49.560;19.090;2024-02-16T16:58:29;96746.00;;;8.42;82.91
68508;BME280;55510;49.560;19.090;2024-02-16T17:01:30;96744.34;;;8.04;83.49
68508;BME280;55510;49.560;19.090;2024-02-16T17:04:31;96749.59;;;7.85;84.27
68508;BME280;55510;49.560;19.090;2024-02-16T17:07:35;96753.22;;;7.65;85.72
68508;BME280;55510;49.560;19.090;2024-02-16T17:10:36;96749.38;;;7.61;84.72
68508;BME280;55510;49.560;19.090;2024-02-16T17:13:36;96754.50;;;7.56;85.16
68508;BME280;55510;49.560;19.090;2024-02-16T17:16:37;96756.03;;;7.38;85.13
68508;BME280;55510;49.560;19.090;2024-02-16T17:19:38;96757.19;;;7.17;85.98
68508;BME280;55510;49.560;19.090;2024-02-16T17:22:40;96760.31;;;7.07;86.71
68508;BME280;55510;49.560;19.090;2024-02-16T17:25:42;96765.47;;;6.89;87.57
68508;BME280;55510;49.560;19.090;2024-02-16T17:28:42;96765.72;;;6.80;88.17
68508;BME280;55510;49.560;19.090;2024-02-16T17:31:43;96770.47;;;6.65;89.06
68508;BME280;55510;49.560;19.090;2024-02-16T17:34:43;96763.56;;;6.50;89.73
68508;BME280;55510;49.560;19.090;2024-02-16T17:37:44;96762.34;;;6.46;90.13
68508;BME280;55510;49.560;19.090;2024-02-16T17:40:45;96768.91;;;6.37;90.88
68508;BME280;55510;49.560;19.090;2024-02-16T17:43:46;96770.09;;;6.41;91.01
68508;BME280;55510;49.560;19.090;2024-02-16T17:46:47;96776.25;;;6.21;92.07
68508;BME280;55510;49.560;19.090;2024-02-16T17:49:47;96778.06;;;6.28;92.24
68508;BME280;55510;49.560;19.090;2024-02-16T17:52:48;96787.22;;;6.32;91.99
68508;BME280;55510;49.560;19.090;2024-02-16T17:55:49;96787.63;;;6.29;92.89
68508;BME280;55510;49.560;19.090;2024-02-16T17:58:49;96783.56;;;6.26;92.52
68508;BME280;55510;49.560;19.090;2024-02-16T18:01:50;96779.50;;;6.17;92.15
68508;BME280;55510;49.560;19.090;2024-02-16T18:04:50;96791.28;;;6.14;93.53
68508;BME280;55510;49.560;19.090;2024-02-16T18:07:51;96794.53;;;5.89;94.78
68508;BME280;55510;49.560;19.090;2024-02-16T18:10:52;96787.22;;;5.78;95.09
68508;BME280;55510;49.560;19.090;2024-02-16T18:13:53;96788.63;;;5.67;95.25
68508;BME280;55510;49.560;19.090;2024-02-16T18:16:54;96792.28;;;5.59;95.24
68508;BME280;55510;49.560;19.090;2024-02-16T18:19:55;96787.19;;;5.51;96.18
68508;BME280;55510;49.560;19.090;2024-02-16T18:22:57;96786.41;;;5.77;95.49
68508;BME280;55510;49.560;19.090;2024-02-16T18:25:58;96800.22;;;5.66;96.51
68508;BME280;55510;49.560;19.090;2024-02-16T18:28:59;96792.88;;;5.55;96.16
68508;BME280;55510;49.560;19.090;2024-02-16T18:32:00;96798.16;;;5.55;97.01
68508;BME280;55510;49.560;19.090;2024-02-16T18:35:01;96796.50;;;5.40;97.27
68508;BME280;55510;49.560;19.090;2024-02-16T18:38:04;96798.13;;;5.34;97.62
68508;BME280;55510;49.560;19.090;2024-02-16T18:41:04;96795.66;;;5.26;97.85
68508;BME280;55510;49.560;19.090;2024-02-16T18:44:06;96800.16;;;5.39;96.84
68508;BME280;55510;49.560;19.090;2024-02-16T18:47:07;96791.66;;;5.44;96.15
68508;BME280;55510;49.560;19.090;2024-02-16T18:50:07;96805.03;;;5.35;96.21
68508;BME280;55510;49.560;19.090;2024-02-16T18:53:09;96802.19;;;5.30;96.91
68508;BME280;55510;49.560;19.090;2024-02-16T18:56:10;61888.91;;;-147.19;100.00
68508;BME280;55510;49.560;19.090;2024-02-16T18:59:11;61888.91;;;-147.19;100.00
68508;BME280;55510;49.560;19.090;2024-02-16T19:02:15;61888.91;;;-147.19;100.00
68508;BME280;55510;49.560;19.090;2024-02-16T19:05:20;61888.91;;;-147.19;100.00
68508;BME280;55510;49.560;19.090;2024-02-16T19:08:21;61888.91;;;-147.19;100.00
68508;BME280;55510;49.560;19.090;2024-02-16T19:11:22;61888.91;;;-147.19;100.00
68508;BME280;55510;49.560;19.090;2024-02-16T19:14:23;61888.91;;;-147.19;100.00
68508;BME280;55510;49.560;19.090;2024-02-16T19:17:26;61888.91;;;-147.19;100.00
68508;BME280;55510;49.560;19.090;2024-02-16T19:20:27;61888.91;;;-147.19;100.00
68508;BME280;55510;49.560;19.090;2024-02-16T19:23:28;61888.91;;;-147.19;100.00
68508;BME280;55510;49.560;19.090;2024-02-16T19:26:28;61888.91;;;-147.19;100.00
68508;BME280;55510;49.560;19.090;2024-02-16T19:29:31;61888.91;;;-147.19;100.00
68508;BME280;55510;49.560;19.090;2024-02-16T19:32:32;61888.91;;;-147.19;100.00
